Terminal Aerodrome Forecast
Issued by NWS Louisville, KY

Home | Current Version | Previous Version | Text Only | Print | Product List | Glossary On
Versions: 1 2 3 4 5 6 7 8 9 10 11 12 13
000
FTUS43 KLMK 191955 AAA
TAFLEX
TAF AMD
KLEX 191955Z 1920/2018 21008KT P6SM VCSH SCT040 SCT250
     FM200000 VRB03KT P6SM SKC
     FM200900 VRB03KT 4SM BR SKC
      TEMPO 2009/2013 1SM BR
     FM201300 VRB04KT P6SM SKC=

USA.gov is the U.S. government's official web portal to all federal, state and local government web resources and services.